Time;durP1;ratioP1;P1;durP2;ratioP2;P2;SDS_P1;SDS_P2;PMS_P1;PMS_P2;Temp;Humidity;BMP_temperature;BMP_pressure;BME280_temperature;BME280_humidity;BME280_pressure;Samples;Min_cycle;Max_cycle;Signal;HPM_P1;HPM_P2
2021/01/30 00:00:35;;;;;;;3.70;1.38;;;;;;;8.39;76.15;98831.13;4953617;29;20134;-82
2021/01/30 00:03:04;;;;;;;6.18;1.50;;;;;;;8.47;75.66;98828.88;4951913;29;20047;-81
2021/01/30 00:05:31;;;;;;;6.07;1.60;;;;;;;8.48;75.20;98835.84;4933309;29;20036;-83
2021/01/30 00:08:06;;;;;;;4.65;1.10;;;;;;;8.50;74.89;98833.09;4951752;29;20039;-83
2021/01/30 00:10:33;;;;;;;3.35;1.38;;;;;;;8.50;75.04;98838.38;4951330;29;20059;-83
2021/01/30 00:13:00;;;;;;;4.20;1.58;;;;;;;8.42;75.31;98839.69;4949004;29;20052;-82
2021/01/30 00:15:28;;;;;;;2.53;1.10;;;;;;;8.40;75.92;98840.72;4953268;29;20059;-82
2021/01/30 00:17:56;;;;;;;4.63;1.08;;;;;;;8.43;74.86;98845.81;4935414;29;20075;-82
2021/01/30 00:20:28;;;;;;;4.00;1.50;;;;;;;8.46;74.86;98843.00;4949014;29;20044;-82
2021/01/30 00:22:56;;;;;;;4.70;1.20;;;;;;;8.50;74.67;98851.56;4935795;29;20043;-82
2021/01/30 00:25:26;;;;;;;5.25;1.45;;;;;;;8.43;75.20;98840.53;4956130;29;20107;-81
2021/01/30 00:27:53;;;;;;;4.87;1.47;;;;;;;8.37;75.12;98839.13;4952277;29;20054;-82
2021/01/30 00:30:21;;;;;;;5.35;1.27;;;;;;;8.43;74.45;98841.38;4932227;29;20048;-82
2021/01/30 00:32:48;;;;;;;5.05;1.23;;;;;;;8.46;74.23;98850.91;4949923;29;20119;-82
2021/01/30 00:35:17;;;;;;;4.53;1.55;;;;;;;8.46;74.47;98855.34;4938879;29;20082;-82
2021/01/30 00:37:43;;;;;;;3.03;1.17;;;;;;;8.40;74.55;98853.91;4939934;29;20036;-81
2021/01/30 00:40:10;;;;;;;5.25;1.75;;;;;;;8.40;74.65;98865.31;4957295;29;20107;-83
2021/01/30 00:42:36;;;;;;;6.13;1.58;;;;;;;8.47;73.77;98865.78;4962549;28;20051;-80
2021/01/30 00:45:09;;;;;;;3.60;1.55;;;;;;;8.47;73.44;98867.59;4964603;29;20064;-81
2021/01/30 00:47:35;;;;;;;5.45;1.60;;;;;;;8.48;73.63;98859.56;4940997;29;20107;-81
2021/01/30 00:50:03;;;;;;;5.68;1.45;;;;;;;8.44;73.96;98863.34;4958068;29;20067;-83
2021/01/30 00:52:29;;;;;;;4.20;1.50;;;;;;;8.42;73.78;98862.59;4938558;28;20044;-82
2021/01/30 00:54:56;;;;;;;4.95;1.48;;;;;;;8.40;73.69;98865.31;4951716;29;20129;-83
2021/01/30 00:57:23;;;;;;;5.47;1.45;;;;;;;8.38;73.75;98861.06;4958196;29;20113;-82
2021/01/30 00:59:50;;;;;;;8.90;1.77;;;;;;;8.42;73.44;98871.34;4948709;29;20048;-82
2021/01/30 01:02:16;;;;;;;5.15;1.55;;;;;;;8.46;73.36;98868.53;4925585;29;20074;-81
2021/01/30 01:04:44;;;;;;;6.20;1.80;;;;;;;8.44;73.67;98871.25;4939433;29;20082;-83
2021/01/30 01:07:13;;;;;;;6.68;1.80;;;;;;;8.41;73.45;98872.28;4941463;29;20051;-82
2021/01/30 01:09:40;;;;;;;6.40;1.70;;;;;;;8.36;73.33;98879.63;4945209;29;20107;-83
2021/01/30 01:12:07;;;;;;;4.93;2.20;;;;;;;8.29;74.03;98880.94;4926037;29;20044;-83
2021/01/30 01:14:34;;;;;;;5.32;1.60;;;;;;;8.32;74.19;98885.22;4950696;29;20071;-84
2021/01/30 01:17:01;;;;;;;5.30;1.80;;;;;;;8.29;73.50;98873.03;4945281;29;20135;-82
2021/01/30 01:19:28;;;;;;;5.53;2.00;;;;;;;8.27;74.10;98876.69;4951080;29;20143;-83
2021/01/30 01:21:54;;;;;;;6.80;2.05;;;;;;;8.25;73.62;98884.69;4942476;29;20042;-84
2021/01/30 01:24:21;;;;;;;6.35;2.17;;;;;;;8.33;73.57;98887.75;4929212;29;20079;-83
2021/01/30 01:26:49;;;;;;;3.55;1.83;;;;;;;8.31;73.42;98880.84;4931080;29;20093;-83
2021/01/30 01:29:18;;;;;;;4.53;1.52;;;;;;;8.28;73.88;98896.84;4950805;29;20082;-83
2021/01/30 01:31:50;;;;;;;5.93;2.03;;;;;;;8.22;74.22;98889.31;4946122;29;20051;-84
2021/01/30 01:34:18;;;;;;;5.22;1.40;;;;;;;8.16;74.31;98897.59;4946837;29;20063;-83
2021/01/30 01:36:44;;;;;;;3.65;2.05;;;;;;;8.24;73.80;98901.47;4937000;29;20066;-84
2021/01/30 01:39:11;;;;;;;3.85;1.88;;;;;;;8.22;73.79;98899.84;4943334;29;20067;-82
2021/01/30 01:41:37;;;;;;;4.25;1.73;;;;;;;8.19;73.69;98898.25;4946354;29;20154;-81
2021/01/30 01:44:04;;;;;;;4.38;1.40;;;;;;;8.18;74.11;98899.22;4932773;29;20067;-81
2021/01/30 01:46:37;;;;;;;6.88;1.98;;;;;;;8.14;74.31;98900.34;4950266;29;20059;-80
2021/01/30 01:49:13;;;;;;;3.30;1.60;;;;;;;8.15;74.47;98902.03;4951201;29;20123;-81
2021/01/30 01:51:48;;;;;;;4.15;1.50;;;;;;;8.16;74.11;98901.09;4937334;29;20070;-82
2021/01/30 01:54:26;;;;;;;3.55;1.50;;;;;;;8.16;74.30;98909.00;4951893;29;20107;-80
2021/01/30 01:56:55;;;;;;;5.88;1.90;;;;;;;8.18;73.59;98895.72;4958528;29;20057;-82
2021/01/30 01:59:23;;;;;;;3.47;1.40;;;;;;;8.16;74.33;98900.25;4950033;29;20073;-82
2021/01/30 02:01:54;;;;;;;4.35;1.40;;;;;;;8.19;73.67;98882.41;4934510;29;20090;-82
2021/01/30 02:04:22;;;;;;;4.35;1.70;;;;;;;8.22;73.50;98900.69;4954292;29;20050;-82
2021/01/30 02:06:52;;;;;;;6.85;1.73;;;;;;;8.19;73.71;98897.41;4953082;29;20082;-83
2021/01/30 02:09:23;;;;;;;3.75;1.60;;;;;;;8.22;73.60;98897.22;4949003;28;20051;-82
2021/01/30 02:12:05;;;;;;;5.20;1.70;;;;;;;8.19;73.91;98892.13;4952028;29;20054;-82
2021/01/30 02:14:36;;;;;;;4.18;1.50;;;;;;;8.23;73.54;98891.84;4950246;29;20030;-82
2021/01/30 02:17:26;;;;;;;2.22;1.20;;;;;;;8.22;74.03;98897.22;4945168;29;20057;-82
2021/01/30 02:20:28;;;;;;;5.80;1.67;;;;;;;8.23;73.69;98889.22;4948880;29;20198;-82
2021/01/30 02:23:13;;;;;;;5.10;1.40;;;;;;;8.28;73.04;98881.03;4955447;29;20064;-81
2021/01/30 02:26:17;;;;;;;3.78;1.40;;;;;;;8.25;73.30;98886.47;4960872;29;20111;-82
2021/01/30 02:29:11;;;;;;;4.70;1.30;;;;;;;8.13;74.26;98876.69;4959072;29;20054;-81
2021/01/30 02:32:07;;;;;;;4.07;1.13;;;;;;;8.12;74.01;98875.84;4954899;29;20100;-82
2021/01/30 02:34:47;;;;;;;5.15;1.02;;;;;;;8.07;74.11;98875.28;4946807;29;20032;-82
2021/01/30 02:37:30;;;;;;;5.30;1.35;;;;;;;8.08;74.32;98882.25;4935869;29;20039;-82
2021/01/30 02:40:04;;;;;;;4.05;1.05;;;;;;;8.03;74.51;98889.56;4931095;29;20043;-82
2021/01/30 02:42:42;;;;;;;5.47;1.30;;;;;;;8.01;74.45;98888.84;4948265;29;20097;-82
2021/01/30 02:45:19;;;;;;;1.58;0.82;;;;;;;8.02;74.48;98885.25;4946390;29;20074;-82
2021/01/30 02:47:52;;;;;;;5.45;1.05;;;;;;;8.00;74.46;98882.72;4944384;29;20051;-82
2021/01/30 02:50:25;;;;;;;3.58;0.73;;;;;;;7.98;74.54;98884.59;4924531;29;20083;-82
2021/01/30 02:52:57;;;;;;;5.18;1.50;;;;;;;7.88;75.22;98880.78;4942103;29;20111;-83
2021/01/30 02:55:25;;;;;;;6.15;1.17;;;;;;;7.88;75.33;98888.69;4950046;29;20100;-83
2021/01/30 02:57:55;;;;;;;2.85;1.20;;;;;;;7.94;74.98;98892.78;4948492;29;20048;-83
2021/01/30 03:00:24;;;;;;;2.40;1.37;;;;;;;7.94;75.22;98888.34;4929339;29;20111;-83
2021/01/30 03:02:52;;;;;;;4.88;1.33;;;;;;;7.83;75.48;98874.13;4942056;29;20063;-82
2021/01/30 03:05:21;;;;;;;3.15;1.20;;;;;;;7.86;75.57;98881.84;4948057;29;20040;-82
2021/01/30 03:07:47;;;;;;;3.50;1.30;;;;;;;7.82;75.86;98883.81;4946902;29;20055;-83
2021/01/30 03:10:43;;;;;;;4.60;0.95;;;;;;;7.82;75.95;98880.34;4943180;29;20051;-83
2021/01/30 03:13:18;;;;;;;3.15;1.20;;;;;;;7.86;75.70;98884.50;4931561;29;20043;-83
2021/01/30 03:16:02;;;;;;;5.22;1.02;;;;;;;7.86;75.54;98884.50;4939523;29;20044;-82
2021/01/30 03:18:34;;;;;;;5.25;1.10;;;;;;;7.82;76.34;98880.34;4944320;29;20059;-83
2021/01/30 03:21:05;;;;;;;4.70;1.33;;;;;;;7.73;76.33;98874.66;4944317;29;20131;-82
2021/01/30 03:23:31;;;;;;;3.53;1.30;;;;;;;7.73;76.68;98879.06;4947121;29;20055;-83
2021/01/30 03:26:06;;;;;;;6.32;1.30;;;;;;;7.74;76.81;98875.50;4940886;29;20063;-82
2021/01/30 03:28:32;;;;;;;3.33;1.30;;;;;;;7.74;76.78;98881.63;4942958;29;20048;-82
2021/01/30 03:31:01;;;;;;;4.15;0.95;;;;;;;7.73;76.63;98871.16;4950985;29;20071;-82
2021/01/30 03:33:28;;;;;;;5.35;1.05;;;;;;;7.71;76.43;98868.63;4942569;29;20062;-82
2021/01/30 03:35:54;;;;;;;3.85;1.05;;;;;;;7.70;76.85;98874.88;4944975;29;20047;-82
2021/01/30 03:38:20;;;;;;;3.72;1.27;;;;;;;7.70;76.91;98881.91;4941411;29;20055;-82
2021/01/30 03:40:47;;;;;;;6.65;1.40;;;;;;;7.78;76.67;98882.31;4948006;29;20058;-82
2021/01/30 03:43:14;;;;;;;2.97;1.05;;;;;;;7.81;76.60;98870.72;4930630;29;20051;-82
2021/01/30 03:45:40;;;;;;;2.88;1.13;;;;;;;7.79;77.33;98883.16;4931454;29;20062;-82
2021/01/30 03:48:08;;;;;;;4.57;1.30;;;;;;;7.81;77.35;98883.91;4945136;29;20154;-82
2021/01/30 03:50:34;;;;;;;6.15;1.23;;;;;;;7.79;78.15;98886.63;4947598;29;20039;-81
2021/01/30 03:53:06;;;;;;;4.85;1.10;;;;;;;7.83;79.20;98877.59;4950793;29;20036;-81
2021/01/30 03:55:32;;;;;;;5.07;1.25;;;;;;;7.82;78.95;98880.34;4950818;29;20050;-82
2021/01/30 03:57:59;;;;;;;4.90;1.52;;;;;;;7.78;79.60;98882.31;4945828;29;20052;-82
2021/01/30 04:00:26;;;;;;;1.90;0.82;;;;;;;7.80;79.20;98876.94;4936964;29;20062;-82
2021/01/30 04:02:54;;;;;;;2.95;0.98;;;;;;;7.70;79.81;98866.97;4931845;29;20048;-82
2021/01/30 04:05:23;;;;;;;4.05;0.85;;;;;;;7.64;80.69;98869.09;4961572;29;20052;-82
2021/01/30 04:07:51;;;;;;;4.05;0.95;;;;;;;7.57;80.68;98862.47;4951518;29;20044;-82
2021/01/30 04:10:26;;;;;;;3.35;1.60;;;;;;;7.50;81.17;98863.78;4954613;29;20032;-82
2021/01/30 04:12:54;;;;;;;2.63;1.02;;;;;;;7.46;81.19;98860.50;4954714;29;20055;-82
2021/01/30 04:15:33;;;;;;;5.25;0.93;;;;;;;7.40;81.30;98855.56;4940444;29;20055;-82
2021/01/30 04:18:01;;;;;;;5.20;1.08;;;;;;;7.45;81.42;98852.69;4944217;28;20107;-82
2021/01/30 04:20:28;;;;;;;3.30;1.08;;;;;;;7.40;81.72;98852.94;4943550;29;20098;-82
2021/01/30 04:22:56;;;;;;;5.35;1.33;;;;;;;7.31;82.23;98850.84;4965720;28;20087;-82
2021/01/30 04:25:23;;;;;;;6.28;1.13;;;;;;;7.34;82.10;98851.53;4959925;29;20072;-83
2021/01/30 04:27:50;;;;;;;4.53;1.10;;;;;;;7.34;82.50;98843.63;4960660;29;20027;-83
2021/01/30 04:30:20;;;;;;;6.97;1.20;;;;;;;7.31;82.27;98827.16;4947558;29;20043;-82
2021/01/30 04:32:47;;;;;;;5.13;1.20;;;;;;;7.31;82.56;98830.63;4957733;29;20044;-82
2021/01/30 04:35:16;;;;;;;2.53;1.25;;;;;;;7.34;82.19;98834.88;4955719;29;20032;-82
2021/01/30 04:37:43;;;;;;;5.68;1.17;;;;;;;7.28;82.60;98833.44;4954077;29;20044;-80
2021/01/30 04:40:20;;;;;;;2.80;1.00;;;;;;;7.36;82.50;98836.50;4932318;29;20134;-82
2021/01/30 04:42:55;;;;;;;3.15;1.15;;;;;;;7.31;82.46;98820.09;4949599;29;20403;-82
2021/01/30 04:45:32;;;;;;;4.18;1.08;;;;;;;7.32;82.90;98820.94;4928502;29;20062;-82
2021/01/30 04:48:23;;;;;;;2.72;0.95;;;;;;;7.35;82.89;98820.78;4951069;29;20095;-82
2021/01/30 04:51:01;;;;;;;;;;;;;;;7.38;82.52;98821.44;4945146;29;20039;-82
2021/01/30 04:53:58;;;;;;;3.85;1.05;;;;;;;7.42;82.63;98805.44;4956566;29;20002;-82
2021/01/30 04:56:53;;;;;;;1.33;0.60;;;;;;;7.46;82.38;98815.72;4950142;29;20044;-82
2021/01/30 04:59:38;;;;;;;3.08;1.00;;;;;;;7.45;82.49;98821.06;4927474;29;20055;-82
2021/01/30 05:02:55;;;;;;;3.70;0.50;;;;;;;7.47;82.76;98813.94;4944532;29;20057;-83
2021/01/30 05:05:26;;;;;;;2.00;0.55;;;;;;;7.45;82.66;98821.91;4933610;29;20043;-82
2021/01/30 05:08:22;;;;;;;2.85;0.55;;;;;;;7.50;82.83;98824.28;4927540;29;20052;-82
2021/01/30 05:10:58;;;;;;;2.03;0.50;;;;;;;7.50;82.77;98821.66;4927936;29;20044;-82
2021/01/30 05:13:36;;;;;;;1.95;0.70;;;;;;;7.48;82.86;98820.91;4948002;29;20677;-82
2021/01/30 05:16:07;;;;;;;3.85;0.75;;;;;;;7.44;83.28;98812.31;4930079;29;20052;-82
2021/01/30 05:18:45;;;;;;;2.13;0.75;;;;;;;7.42;83.61;98800.19;4935739;29;20039;-82
2021/01/30 05:21:20;;;;;;;5.00;0.90;;;;;;;7.40;83.61;98806.38;4954300;29;20054;-82
2021/01/30 05:23:50;;;;;;;2.50;0.52;;;;;;;7.44;83.65;98803.56;4954127;29;20028;-82
2021/01/30 05:26:34;;;;;;;2.03;0.55;;;;;;;7.46;83.73;98806.97;4955454;29;20078;-82
2021/01/30 05:29:15;;;;;;;2.08;0.50;;;;;;;7.48;83.67;98810.34;4958152;28;20091;-82
2021/01/30 05:31:58;;;;;;;2.30;0.82;;;;;;;7.50;83.57;98814.59;4954507;29;20036;-83
2021/01/30 05:34:30;;;;;;;1.02;0.50;;;;;;;7.50;83.70;98813.75;4949372;29;20057;-82
2021/01/30 05:36:59;;;;;;;1.95;0.60;;;;;;;7.50;83.76;98803.22;4957288;28;20028;-83
2021/01/30 05:39:48;;;;;;;3.38;0.80;;;;;;;7.50;83.69;98801.44;4938648;29;20050;-82
2021/01/30 05:42:33;;;;;;;3.90;0.93;;;;;;;7.55;83.85;98816.97;4955653;29;20079;-82
2021/01/30 05:45:21;;;;;;;3.97;0.80;;;;;;;7.52;83.81;98812.72;4941180;29;20043;-82
2021/01/30 05:47:50;;;;;;;1.85;0.50;;;;;;;7.53;84.33;98800.41;4952223;29;20071;-82
2021/01/30 05:50:31;;;;;;;4.38;0.80;;;;;;;7.53;84.62;98795.13;4946395;29;20052;-82
2021/01/30 05:53:01;;;;;;;2.78;0.90;;;;;;;7.58;85.24;98814.97;4932114;29;20067;-82
2021/01/30 05:55:33;;;;;;;1.33;0.57;;;;;;;7.54;85.55;98820.53;4952332;29;20040;-82
2021/01/30 05:58:13;;;;;;;2.33;0.60;;;;;;;7.51;86.27;98821.56;4951242;29;20039;-82
2021/01/30 06:00:41;;;;;;;1.05;0.65;;;;;;;7.44;87.17;98816.75;4931637;29;20051;-81
2021/01/30 06:03:21;;;;;;;2.60;0.60;;;;;;;7.38;87.47;98817.97;4948690;29;20047;-82
2021/01/30 06:05:51;;;;;;;3.17;0.60;;;;;;;7.33;88.07;98812.97;4948474;29;20103;-80
2021/01/30 06:08:23;;;;;;;1.40;0.60;;;;;;;7.33;88.34;98822.66;4923586;29;21051;-83
2021/01/30 06:11:07;;;;;;;3.00;0.85;;;;;;;7.26;88.73;98816.03;4938009;29;20078;-82
2021/01/30 06:14:02;;;;;;;3.30;0.80;;;;;;;7.30;89.17;98822.81;4944985;29;20047;-83
2021/01/30 06:16:37;;;;;;;1.48;0.63;;;;;;;7.31;89.36;98827.16;4933039;29;20048;-83
2021/01/30 06:19:34;;;;;;;3.35;0.80;;;;;;;7.31;89.55;98822.72;4930896;29;20048;-83
2021/01/30 06:22:10;;;;;;;7.00;1.20;;;;;;;7.32;90.22;98828.84;4941475;29;20488;-81
2021/01/30 06:24:44;;;;;;;3.40;0.90;;;;;;;7.31;90.52;98821.88;4950796;29;20087;-82
2021/01/30 06:27:22;;;;;;;2.05;0.80;;;;;;;7.27;90.88;98833.53;4952782;29;20056;-82
2021/01/30 06:29:51;;;;;;;1.40;0.68;;;;;;;7.23;90.96;98827.63;4935674;29;20047;-83
2021/01/30 06:32:46;;;;;;;3.70;0.77;;;;;;;7.18;91.70;98828.81;4932297;29;20052;-83
2021/01/30 06:35:30;;;;;;;3.42;1.10;;;;;;;7.09;92.36;98830.16;4950895;29;20055;-83
2021/01/30 06:38:00;;;;;;;3.47;0.70;;;;;;;7.04;92.93;98827.81;4937993;29;20070;-83
2021/01/30 06:41:01;;;;;;;2.13;0.90;;;;;;;7.06;93.09;98829.53;4949163;29;20052;-83
2021/01/30 06:43:41;;;;;;;3.63;1.23;;;;;;;7.02;93.41;98828.84;4944779;29;20042;-83
2021/01/30 06:46:12;;;;;;;3.92;1.40;;;;;;;6.97;94.11;98817.72;4954513;29;20054;-84
2021/01/30 06:48:45;;;;;;;3.00;1.40;;;;;;;6.99;94.06;98818.50;4935376;29;20066;-84
2021/01/30 06:51:30;;;;;;;3.67;1.90;;;;;;;6.98;94.34;98814.16;4952520;29;20082;-84
2021/01/30 06:54:25;;;;;;;5.10;1.73;;;;;;;6.92;94.66;98815.38;4947177;29;20047;-83
2021/01/30 06:57:06;;;;;;;5.35;1.88;;;;;;;6.93;95.41;98810.94;4952872;29;20115;-83
2021/01/30 06:59:37;;;;;;;3.58;1.90;;;;;;;6.97;94.95;98815.94;4950942;29;20047;-83
2021/01/30 07:02:14;;;;;;;4.32;2.15;;;;;;;6.94;95.49;98817.91;4937653;29;20059;-83
2021/01/30 07:05:06;;;;;;;3.45;1.75;;;;;;;6.96;95.41;98819.50;4949744;29;20048;-83
2021/01/30 07:07:58;;;;;;;4.15;2.00;;;;;;;7.01;95.08;98824.53;4943703;29;20139;-83
2021/01/30 07:10:33;;;;;;;;;;;;;;;6.98;95.37;98822.06;4926587;29;20110;-82
2021/01/30 07:13:31;;;;;;;4.82;2.20;;;;;;;6.92;95.56;98820.66;4938625;29;19934;-82
2021/01/30 07:16:21;;;;;;;3.88;2.22;;;;;;;6.95;95.75;98812.53;4945436;29;20043;-82
2021/01/30 07:19:00;;;;;;;4.63;2.30;;;;;;;6.98;95.91;98827.31;4943419;29;20044;-83
2021/01/30 07:21:36;;;;;;;6.82;3.00;;;;;;;6.97;95.88;98817.72;4947034;29;20048;-81
2021/01/30 07:24:24;;;;;;;5.85;2.42;;;;;;;6.94;96.15;98831.91;4951797;29;20062;-82
2021/01/30 07:27:20;;;;;;;7.25;2.95;;;;;;;6.93;96.37;98824.94;4928819;29;20048;-82
2021/01/30 07:30:16;;;;;;;5.28;2.70;;;;;;;6.90;96.69;98819.03;4944300;29;20048;-82
2021/01/30 07:32:58;;;;;;;5.38;2.83;;;;;;;6.94;97.07;98834.53;4934694;29;20048;-82
2021/01/30 07:35:28;;;;;;;7.65;2.90;;;;;;;6.93;96.98;98832.84;4923132;29;20065;-82
2021/01/30 07:38:16;;;;;;;8.00;3.25;;;;;;;6.86;96.75;98828.88;4946924;29;20035;-82
2021/01/30 07:40:58;;;;;;;9.00;2.97;;;;;;;6.84;97.30;98833.38;4958617;29;20051;-82
2021/01/30 07:43:42;;;;;;;8.75;3.35;;;;;;;6.83;97.60;98828.19;4958473;29;20051;-82
2021/01/30 07:46:17;;;;;;;6.97;3.25;;;;;;;6.83;97.88;98836.09;4947749;29;20061;-82
2021/01/30 07:48:53;;;;;;;7.32;3.33;;;;;;;6.83;97.86;98836.94;4948491;29;20063;-82
2021/01/30 07:51:25;;;;;;;7.20;2.95;;;;;;;6.81;98.11;98835.31;4945705;29;20060;-83
2021/01/30 07:53:51;;;;;;;7.00;2.55;;;;;;;6.82;98.45;98834.38;4952533;29;20066;-81
2021/01/30 07:56:17;;;;;;;11.50;3.38;;;;;;;6.76;98.42;98847.91;4931947;29;20077;-82
2021/01/30 07:59:09;;;;;;;10.25;3.00;;;;;;;6.72;98.16;98841.97;4949870;29;20063;-82
2021/01/30 08:01:56;;;;;;;9.18;3.58;;;;;;;6.68;98.19;98843.06;4950614;29;20071;-82
2021/01/30 08:04:52;;;;;;;5.22;2.67;;;;;;;6.62;98.17;98844.22;4946768;29;20051;-82
2021/01/30 08:07:34;;;;;;;4.47;1.80;;;;;;;6.55;97.97;98842.03;4947926;29;20054;-82
2021/01/30 08:10:24;;;;;;;2.85;1.67;;;;;;;6.45;97.96;98846.13;4944897;29;20056;-82
2021/01/30 08:12:57;;;;;;;3.67;2.55;;;;;;;6.09;94.06;98862.09;4945149;29;20531;-82
2021/01/30 08:15:35;;;;;;;3.90;3.50;;;;;;;5.51;92.24;98865.91;4948693;29;20070;-81
2021/01/30 08:18:29;;;;;;;6.53;4.57;;;;;;;4.97;92.53;98871.28;4945370;29;20063;-81
2021/01/30 08:21:21;;;;;;;5.97;4.47;;;;;;;4.65;93.90;98864.94;4945483;29;20039;-81
2021/01/30 08:24:27;;;;;;;6.22;4.40;;;;;;;4.53;95.10;98880.34;4953203;29;20111;-81
2021/01/30 08:27:08;;;;;;;6.47;4.65;;;;;;;4.34;94.36;98882.09;4946142;29;20043;-81
2021/01/30 08:29:42;;;;;;;6.38;4.80;;;;;;;4.19;94.96;98885.41;4935882;29;20047;-83
2021/01/30 08:32:23;;;;;;;6.07;3.80;;;;;;;3.98;93.89;98896.84;4930246;29;20127;-82
2021/01/30 08:34:56;;;;;;;7.50;4.70;;;;;;;3.85;93.87;98902.63;4932400;29;20055;-83
2021/01/30 08:37:25;;;;;;;7.32;4.80;;;;;;;3.69;94.15;98904.19;4946003;29;20054;-82
2021/01/30 08:40:15;;;;;;;7.43;5.60;;;;;;;3.46;93.95;98914.81;4947047;29;20056;-82
2021/01/30 08:42:57;;;;;;;10.35;6.50;;;;;;;3.27;93.46;98919.94;4940933;29;20055;-81
2021/01/30 08:45:32;;;;;;;10.93;7.35;;;;;;;3.14;93.56;98923.97;4947382;29;20078;-81
2021/01/30 08:48:17;;;;;;;13.75;8.90;;;;;;;2.85;92.32;98943.41;4932448;29;20139;-84
2021/01/30 08:50:50;;;;;;;12.85;8.20;;;;;;;2.72;91.77;98934.34;4929911;29;20063;-83
2021/01/30 08:53:21;;;;;;;15.07;10.35;;;;;;;2.55;93.12;98944.56;4935418;29;20032;-82
2021/01/30 08:55:50;;;;;;;18.73;11.95;;;;;;;2.53;93.79;98941.16;4938539;29;20048;-81
2021/01/30 08:58:32;;;;;;;15.98;10.50;;;;;;;2.39;92.67;98941.69;4955716;29;20041;-83
2021/01/30 09:01:11;;;;;;;18.13;11.15;;;;;;;2.41;93.60;98943.34;4940851;28;20046;-82
2021/01/30 09:03:52;;;;;;;20.27;12.15;;;;;;;2.39;93.34;98950.38;4954404;28;20039;-83
2021/01/30 09:06:49;;;;;;;18.67;12.55;;;;;;;2.52;92.56;98949.94;4955518;28;20036;-83
2021/01/30 09:09:21;;;;;;;19.70;12.65;;;;;;;2.44;92.96;98956.28;4953497;28;20065;-84
2021/01/30 09:11:53;;;;;;;20.27;12.52;;;;;;;2.40;93.02;98962.53;4958023;28;20039;-84
2021/01/30 09:14:19;;;;;;;20.35;12.80;;;;;;;2.47;93.15;98968.41;4955699;28;20051;-84
2021/01/30 09:17:03;;;;;;;20.00;12.95;;;;;;;2.48;92.14;98957.03;4954019;29;20038;-83
2021/01/30 09:19:39;;;;;;;20.05;12.77;;;;;;;2.58;93.99;98961.00;4952646;29;20056;-82
2021/01/30 09:22:24;;;;;;;19.75;13.20;;;;;;;2.54;92.22;98958.53;4929745;29;20055;-83
2021/01/30 09:25:06;;;;;;;20.88;13.25;;;;;;;2.53;92.46;98954.22;4929284;29;20061;-84
2021/01/30 09:27:44;;;;;;;20.38;13.05;;;;;;;2.46;92.68;98951.00;4924993;29;20063;-84
2021/01/30 09:30:17;;;;;;;20.52;13.25;;;;;;;2.46;92.27;98956.22;4904725;29;20055;-83
2021/01/30 09:32:46;;;;;;;21.88;13.77;;;;;;;2.39;92.67;98955.59;4932818;29;20115;-84
2021/01/30 09:35:27;;;;;;;22.05;13.75;;;;;;;2.39;92.77;98966.03;4942441;29;20086;-85
2021/01/30 09:37:53;;;;;;;;;;;;;;;2.43;92.01;98975.47;4928783;29;20083;-85
2021/01/30 09:40:25;;;;;;;21.85;13.25;;;;;;;2.35;91.82;98969.69;4945647;29;19927;-83
2021/01/30 09:43:02;;;;;;;18.73;12.52;;;;;;;2.23;92.39;98969.28;4928468;29;20052;-83
2021/01/30 09:45:29;;;;;;;22.02;13.38;;;;;;;2.19;93.39;98968.56;4931203;29;20050;-83
2021/01/30 09:47:58;;;;;;;18.58;13.45;;;;;;;2.23;93.14;98972.72;4951082;28;20082;-82
2021/01/30 09:50:30;;;;;;;21.17;13.70;;;;;;;2.38;92.88;98971.31;4932524;29;20043;-83
2021/01/30 09:53:04;;;;;;;17.65;12.60;;;;;;;2.40;92.68;98972.13;4930442;29;20051;-85
2021/01/30 09:55:35;;;;;;;18.40;13.20;;;;;;;2.32;91.55;98980.25;4949141;29;20052;-84
2021/01/30 09:58:12;;;;;;;20.75;14.18;;;;;;;2.30;92.86;98984.69;4958270;28;20032;-84
2021/01/30 10:00:40;;;;;;;19.00;12.70;;;;;;;2.39;92.43;98989.56;4953208;29;20083;-84
2021/01/30 10:03:22;;;;;;;16.67;12.35;;;;;;;2.39;92.24;98988.69;4949871;29;20166;-85
2021/01/30 10:06:19;;;;;;;18.20;13.30;;;;;;;2.39;92.15;98999.16;4933929;28;20054;-84
2021/01/30 10:09:14;;;;;;;14.93;11.60;;;;;;;2.19;90.61;98984.22;4939660;28;20035;-83
2021/01/30 10:11:43;;;;;;;16.52;12.98;;;;;;;2.09;91.72;98993.25;4951505;28;20119;-84
2021/01/30 10:14:15;;;;;;;16.23;12.25;;;;;;;1.99;92.20;98992.75;4935696;29;20043;-83
2021/01/30 10:17:08;;;;;;;17.00;13.50;;;;;;;2.00;92.55;98996.22;4951520;29;20142;-84
2021/01/30 10:19:40;;;;;;;18.00;13.25;;;;;;;2.04;92.39;98989.97;4948828;29;20031;-84
2021/01/30 10:22:19;;;;;;;18.63;13.95;;;;;;;1.92;92.22;98993.00;4945357;29;20055;-84
2021/01/30 10:24:46;;;;;;;17.73;13.68;;;;;;;1.98;92.85;98985.81;4953538;29;20046;-84
2021/01/30 10:27:19;;;;;;;16.13;13.25;;;;;;;1.93;91.88;98992.09;4951458;29;20039;-84
2021/01/30 10:29:47;;;;;;;19.73;14.07;;;;;;;1.75;91.99;98983.97;4947687;28;20076;-86
2021/01/30 10:32:21;;;;;;;23.48;15.90;;;;;;;1.60;93.17;98981.03;4938013;29;20075;-83
2021/01/30 10:35:02;;;;;;;25.65;16.23;;;;;;;1.67;94.21;98985.16;4945017;29;20071;-84
2021/01/30 10:37:35;;;;;;;20.98;15.20;;;;;;;1.72;93.84;98988.47;4942776;29;20075;-85
2021/01/30 10:40:09;;;;;;;20.75;15.55;;;;;;;1.92;94.33;98993.00;4964172;28;20028;-84
2021/01/30 10:42:39;;;;;;;23.98;16.77;;;;;;;1.98;93.39;98985.81;4952485;29;20048;-84
2021/01/30 10:45:22;;;;;;;19.45;14.40;;;;;;;2.13;93.22;98984.41;4952386;29;20048;-84
2021/01/30 10:48:00;;;;;;;19.67;15.00;;;;;;;2.15;91.82;98987.84;4954685;29;20764;-82
2021/01/30 10:50:32;;;;;;;20.67;15.48;;;;;;;2.08;92.43;98983.72;4952529;29;20078;-83
2021/01/30 10:53:46;;;;;;;18.67;13.77;;;;;;;2.08;91.44;98992.41;4937164;29;20145;-84
2021/01/30 10:56:20;;;;;;;21.45;15.10;;;;;;;1.90;92.24;98984.34;4954219;29;20063;-83
2021/01/30 10:58:49;;;;;;;21.73;15.35;;;;;;;1.92;92.60;98987.78;4937855;29;20032;-86
2021/01/30 11:01:18;;;;;;;21.40;15.82;;;;;;;1.98;93.57;98992.78;4941939;29;20107;-85
2021/01/30 11:04:03;;;;;;;21.67;16.17;;;;;;;2.09;92.41;98988.03;4948699;29;20071;-83
2021/01/30 11:06:36;;;;;;;22.90;16.50;;;;;;;2.02;92.83;98970.91;4957346;29;20047;-85
2021/01/30 11:09:30;;;;;;;21.35;16.27;;;;;;;2.18;92.57;98987.75;4953438;29;20048;-83
2021/01/30 11:12:23;;;;;;;20.95;15.15;;;;;;;2.13;91.56;98979.19;4950029;29;20040;-84
2021/01/30 11:14:50;;;;;;;22.50;15.38;;;;;;;2.05;91.51;98991.66;4935005;29;20058;-84
2021/01/30 11:17:32;;;;;;;19.70;15.25;;;;;;;2.08;92.54;98978.50;4953504;29;20063;-84
2021/01/30 11:19:59;;;;;;;18.65;14.70;;;;;;;2.06;91.88;98995.97;4952070;29;20063;-84
2021/01/30 11:22:28;;;;;;;19.13;14.40;;;;;;;2.09;92.03;98978.44;4947460;29;20112;-84
2021/01/30 11:25:04;;;;;;;20.67;15.05;;;;;;;2.08;92.06;98976.75;4953725;29;20504;-84
2021/01/30 11:27:45;;;;;;;20.35;15.75;;;;;;;2.04;92.59;98980.38;4941193;29;20082;-84
2021/01/30 11:30:32;;;;;;;21.35;15.98;;;;;;;2.09;92.23;98972.38;4936085;29;20078;-84
2021/01/30 11:33:08;;;;;;;20.23;15.90;;;;;;;2.09;92.40;98973.22;4956564;29;20043;-83
2021/01/30 11:35:39;;;;;;;24.48;17.40;;;;;;;2.22;92.74;98965.81;4954087;29;20048;-84
2021/01/30 11:38:12;;;;;;;20.42;15.20;;;;;;;2.18;91.90;98961.63;4948180;29;20138;-83
2021/01/30 11:40:40;;;;;;;21.65;16.05;;;;;;;1.99;91.71;98950.13;4934847;29;20067;-83
2021/01/30 11:43:07;;;;;;;21.55;15.93;;;;;;;1.77;92.39;98937.81;4942574;29;20051;-83
2021/01/30 11:45:34;;;;;;;23.23;16.40;;;;;;;1.90;93.18;98939.97;4930558;29;20073;-83
2021/01/30 11:48:01;;;;;;;24.80;17.80;;;;;;;2.07;93.98;98932.41;4931895;29;20047;-81
2021/01/30 11:50:28;;;;;;;23.73;16.95;;;;;;;2.06;93.53;98930.69;4936602;29;20135;-83
2021/01/30 11:53:11;;;;;;;25.65;17.92;;;;;;;2.19;93.13;98942.44;4951830;29;20047;-82
2021/01/30 11:55:39;;;;;;;21.75;16.33;;;;;;;2.32;93.07;98933.25;4935247;29;20047;-83
2021/01/30 11:58:07;;;;;;;22.85;16.45;;;;;;;2.28;92.95;98936.88;4935987;29;20046;-83
2021/01/30 12:00:33;;;;;;;25.38;17.52;;;;;;;2.37;93.71;98933.03;4954621;29;20051;-84
2021/01/30 12:03:02;;;;;;;21.17;15.65;;;;;;;2.39;93.12;98926.84;4956335;29;20071;-82
2021/01/30 12:05:30;;;;;;;22.75;16.65;;;;;;;2.44;93.30;98932.78;4964784;29;20047;-82
2021/01/30 12:07:58;;;;;;;20.98;15.80;;;;;;;2.54;92.61;98922.81;4934842;29;20040;-82
2021/01/30 12:10:25;;;;;;;20.70;15.50;;;;;;;2.42;92.47;98920.69;4954191;29;20063;-83
2021/01/30 12:12:54;;;;;;;19.63;14.98;;;;;;;2.22;92.05;98928.38;4951543;29;20032;-84
2021/01/30 12:15:23;;;;;;;24.95;16.73;;;;;;;2.22;93.32;98910.09;4962969;29;20055;-84